Fond du Lac, WI (54936)

12:10 AM CST on December 25, 2014 (GMT -0600)
Hunters Grove | Change Station
CLOSE
Current Station
Personal Weather Station
Location: Fond Du Lac, WI
Elevation: 764 ft
Nearby Weather Stations

Elev 764 ft 43.79 °N, 88.39 °W | Updated 12 minutes ago

Overcast
Overcast
33.1 °F
Feels Like 27 °F
N
6.3
Wind Variable Wind from West

Today
High -- | Low -- °F
--% Chance of Precip.
Yesterday
High -- | Low -- °F
Precip. -- in
7:26 AM 4:21 PM
Waxing Crescent, 14% visible
Pressure 29.59 in
Visibility 10.0 miles
Clouds Few 1200 ft
Scattered Clouds 3900 ft
Overcast 6000 ft
Windchill 27 °F
Dew Point 31 °F
Humidity 91%
Rainfall 0.07 in
Snow Depth Not available.
UV 0 out of 12
Pollen .10 out of 12
Air Quality Not available.
Flu Activity Not available.
METAR KFLD 250553Z AUTO 28010KT 10SM FEW012 SCT039 OVC060 01/M01 A2956 RMK AO2 SLP019 60000 T00111011 10017 20011 400280011 51016

More Conditions Fewer Conditions

Pressure 29.59 in
Visibility 10.0 miles
Clouds Few 1200 ft
Scattered Clouds 3900 ft
Overcast 6000 ft
Windchill 27 °F
Dew Point 31 °F
Humidity 91%
Rainfall 0.07 in
Snow Depth Not available.
UV 0 out of 12
Pollen .10 out of 12
Air Quality Not available.
Flu Activity Not available.
METAR KFLD 250553Z AUTO 28010KT 10SM FEW012 SCT039 OVC060 01/M01 A2956 RMK AO2 SLP019 60000 T00111011 10017 20011 400280011 51016

More Conditions Fewer Conditions

10-Day Weather Forecast

Almanac

Astronomy

Dec. 25, 2014 Rise Set
Actual Time
Civil Twilight
Nautical Twilight
Astronomical Twilight
Moon
Length of Visible Light
Length of Day
Tomorrow will be .
, % of the Moon is Illuminated

Today's Extremes

State Highs State Lows

Community

WunderPhotos

Upload Photos

1,780,248 photos uploaded!

WunderBlogs® & News

Nearby

Air Quality

  Air Quality AQ Index Pollutant
Not available.

Snow Depth

Station Depth Elevation

Earthquake Activity

City Distance Mag. Time & Date
Minimum magnitude displayed is 2.5.

Coastal Water Temperatures

Place Temperature

Nearby Weather Stations